createdAt,value
2022-11-29T00:01:04.274Z,11.43
2022-11-29T00:03:32.181Z,9.75
2022-11-29T00:06:07.141Z,10.30
2022-11-29T00:08:34.927Z,10.07
2022-11-29T00:11:14.223Z,10.02
2022-11-29T00:13:41.593Z,10.32
2022-11-29T00:16:12.270Z,10.07
2022-11-29T00:18:39.702Z,10.90
2022-11-29T00:21:08.864Z,10.82
2022-11-29T00:23:36.634Z,10.95
2022-11-29T00:26:08.666Z,10.30
2022-11-29T00:28:37.353Z,9.52
2022-11-29T00:31:34.310Z,10.48
2022-11-29T00:34:03.582Z,10.57
2022-11-29T00:36:31.426Z,10.70
2022-11-29T00:38:59.247Z,10.45
2022-11-29T00:41:27.141Z,10.43
2022-11-29T00:43:54.789Z,10.80
2022-11-29T00:46:22.533Z,10.40
2022-11-29T00:48:49.984Z,10.85
2022-11-29T00:51:17.394Z,10.52
2022-11-29T00:53:44.826Z,9.90
2022-11-29T00:56:12.257Z,9.95
2022-11-29T00:58:39.673Z,10.50
2022-11-29T01:01:07.118Z,9.95
2022-11-29T01:03:34.737Z,10.15
2022-11-29T01:06:07.807Z,10.02
2022-11-29T01:08:35.486Z,9.95
2022-11-29T01:11:12.589Z,9.88
2022-11-29T01:13:40.846Z,9.02
2022-11-29T01:16:09.269Z,10.18
2022-11-29T01:18:37.618Z,9.43
2022-11-29T01:21:18.539Z,10.05
2022-11-29T01:23:47.462Z,10.38
2022-11-29T01:26:17.310Z,10.85
2022-11-29T01:28:47.280Z,9.10
2022-11-29T01:31:22.684Z,9.80
2022-11-29T01:33:54.814Z,9.95
2022-11-29T01:36:22.284Z,10.95
2022-11-29T01:38:49.712Z,9.52
2022-11-29T01:41:20.580Z,9.70
2022-11-29T01:43:59.079Z,10.60
2022-11-29T01:46:29.239Z,11.27
2022-11-29T01:49:02.016Z,11.70
2022-11-29T01:51:30.893Z,12.35
2022-11-29T01:53:58.920Z,14.95
2022-11-29T01:56:27.833Z,15.20
2022-11-29T01:58:55.210Z,13.93
2022-11-29T02:01:22.798Z,13.70
2022-11-29T02:03:50.164Z,13.07
2022-11-29T02:06:17.918Z,12.25
2022-11-29T02:08:45.391Z,11.80
2022-11-29T02:11:15.558Z,12.32
2022-11-29T02:13:53.221Z,11.45
2022-11-29T02:16:56.705Z,13.25
2022-11-29T02:19:54.112Z,12.90
2022-11-29T02:22:31.392Z,12.38
2022-11-29T02:25:43.104Z,13.05
2022-11-29T02:28:19.049Z,11.82
2022-11-29T02:31:10.961Z,12.35
2022-11-29T02:34:15.501Z,11.75
2022-11-29T02:37:13.289Z,11.82
2022-11-29T02:39:49.623Z,11.05
2022-11-29T02:42:56.187Z,10.93
2022-11-29T02:45:42.204Z,9.88
2022-11-29T02:48:58.122Z,11.48
2022-11-29T02:51:54.209Z,9.82
2022-11-29T02:54:30.239Z,9.90
2022-11-29T02:57:23.659Z,10.52
2022-11-29T03:00:07.988Z,10.82
2022-11-29T03:02:49.511Z,9.90
2022-11-29T03:05:30.024Z,10.73
2022-11-29T03:08:11.504Z,9.82
2022-11-29T03:10:57.493Z,10.20
2022-11-29T03:14:01.468Z,10.32
2022-11-29T03:17:15.525Z,11.02
2022-11-29T03:20:17.783Z,10.90
2022-11-29T03:23:08.130Z,10.02
2022-11-29T03:25:43.809Z,10.77
2022-11-29T03:28:13.916Z,10.10
2022-11-29T03:30:45.769Z,10.60
2022-11-29T03:33:49.246Z,9.43
2022-11-29T03:36:26.981Z,9.90
2022-11-29T03:39:00.693Z,9.27
2022-11-29T03:41:28.085Z,8.77
2022-11-29T03:44:03.509Z,9.23
2022-11-29T03:46:46.237Z,9.27
2022-11-29T03:49:21.804Z,9.70
2022-11-29T03:52:07.061Z,9.52
2022-11-29T03:54:43.444Z,10.38
2022-11-29T03:57:15.923Z,10.35
2022-11-29T04:00:00.268Z,10.20
2022-11-29T04:02:36.907Z,11.63
2022-11-29T04:05:35.474Z,11.20
2022-11-29T04:08:44.141Z,8.90
2022-11-29T04:11:54.948Z,10.02
2022-11-29T04:14:43.515Z,9.63
2022-11-29T04:17:30.641Z,10.65
2022-11-29T04:20:23.433Z,12.20
2022-11-29T04:23:12.008Z,13.40
2022-11-29T04:26:30.882Z,13.40
2022-11-29T04:29:09.381Z,11.82
2022-11-29T04:31:51.391Z,13.77
2022-11-29T04:34:40.604Z,14.40
2022-11-29T04:37:16.677Z,15.98
2022-11-29T04:40:01.616Z,15.80
2022-11-29T04:42:47.258Z,13.05
2022-11-29T04:45:26.021Z,10.40
2022-11-29T04:48:32.804Z,10.77
2022-11-29T04:51:16.606Z,10.05
2022-11-29T04:54:05.794Z,10.40
2022-11-29T04:57:07.631Z,9.50
2022-11-29T04:59:57.463Z,10.93
2022-11-29T05:02:57.422Z,11.75
2022-11-29T05:05:50.738Z,11.05
2022-11-29T05:08:57.397Z,10.88
2022-11-29T05:12:02.208Z,12.27
2022-11-29T05:14:38.501Z,10.50
2022-11-29T05:17:24.989Z,11.02
2022-11-29T05:23:24.085Z,11.07
2022-11-29T05:26:07.357Z,11.48
2022-11-29T05:28:54.503Z,11.70
2022-11-29T05:31:58.533Z,11.43
2022-11-29T05:34:30.296Z,11.38
2022-11-29T05:37:06.077Z,11.52
2022-11-29T05:39:38.540Z,11.60
2022-11-29T05:42:32.298Z,11.25
2022-11-29T05:45:36.441Z,10.82
2022-11-29T05:48:15.232Z,10.57
2022-11-29T05:50:49.609Z,11.20
2022-11-29T05:53:37.131Z,10.35
2022-11-29T05:56:26.294Z,11.82
2022-11-29T05:59:01.950Z,12.48
2022-11-29T06:01:49.879Z,12.90
2022-11-29T06:04:36.256Z,21.98
2022-11-29T06:07:19.535Z,21.25
2022-11-29T06:10:00.509Z,27.92
2022-11-29T06:12:35.124Z,27.23
2022-11-29T06:15:20.093Z,22.10
2022-11-29T06:18:08.041Z,28.55
2022-11-29T06:21:06.911Z,22.75
2022-11-29T06:23:59.290Z,20.92
2022-11-29T06:26:35.346Z,17.08
2022-11-29T06:29:19.120Z,13.75
2022-11-29T06:31:52.316Z,13.38
2022-11-29T06:34:46.658Z,11.40
2022-11-29T06:37:45.153Z,11.05
2022-11-29T06:40:16.088Z,10.63
2022-11-29T06:45:14.487Z,10.02
2022-11-29T06:47:57.549Z,10.18
2022-11-29T06:50:43.249Z,10.93
2022-11-29T06:53:36.916Z,9.32
2022-11-29T06:56:29.394Z,9.18
2022-11-29T06:59:02.317Z,9.98
2022-11-29T07:01:42.145Z,10.00
2022-11-29T07:04:24.244Z,9.43
2022-11-29T07:06:51.995Z,8.60
2022-11-29T07:09:22.902Z,8.65
2022-11-29T07:11:50.452Z,10.48
2022-11-29T07:14:18.030Z,10.10
2022-11-29T07:17:18.803Z,11.60
2022-11-29T07:20:23.911Z,10.75
2022-11-29T07:22:51.220Z,8.90
2022-11-29T07:25:43.297Z,9.20
2022-11-29T07:28:48.700Z,8.45
2022-11-29T07:31:42.672Z,7.80
2022-11-29T07:34:15.814Z,8.63
2022-11-29T07:37:08.148Z,9.48
2022-11-29T07:39:59.712Z,7.40
2022-11-29T07:42:45.016Z,7.18
2022-11-29T07:45:15.478Z,7.82
2022-11-29T07:47:42.850Z,6.57
2022-11-29T07:50:13.831Z,7.10
2022-11-29T07:55:20.304Z,6.00
2022-11-29T07:57:50.984Z,6.00
2022-11-29T08:00:19.498Z,6.03
2022-11-29T08:02:47.728Z,7.03
2022-11-29T08:05:15.208Z,8.00
2022-11-29T08:07:42.844Z,7.85
2022-11-29T08:10:15.352Z,7.63
2022-11-29T08:12:45.505Z,8.77
2022-11-29T08:15:13.031Z,9.10
2022-11-29T08:17:40.617Z,8.38
2022-11-29T08:20:09.429Z,7.80
2022-11-29T08:22:37.165Z,7.20
2022-11-29T08:25:06.080Z,6.25
2022-11-29T08:27:34.233Z,6.22
2022-11-29T08:30:01.723Z,5.78
2022-11-29T08:32:29.265Z,6.05
2022-11-29T08:34:56.688Z,5.32
2022-11-29T08:37:24.068Z,6.32
2022-11-29T08:39:51.396Z,5.45
2022-11-29T08:42:18.829Z,5.35
2022-11-29T08:44:47.974Z,5.15
2022-11-29T08:47:34.014Z,4.38
2022-11-29T08:50:01.954Z,4.43
2022-11-29T08:52:56.825Z,4.20
2022-11-29T08:55:26.928Z,4.32
2022-11-29T08:58:00.025Z,4.50
2022-11-29T09:00:27.548Z,3.35
2022-11-29T09:02:54.969Z,4.07
2022-11-29T09:05:22.402Z,4.15
2022-11-29T09:07:49.875Z,3.88
2022-11-29T09:10:17.327Z,3.53
2022-11-29T09:12:45.048Z,4.05
2022-11-29T09:15:12.662Z,4.68
2022-11-29T09:17:40.006Z,4.00
2022-11-29T09:20:08.459Z,4.38
2022-11-29T09:22:35.820Z,4.07
2022-11-29T09:25:03.289Z,4.72
2022-11-29T09:27:31.372Z,4.60
2022-11-29T09:29:58.713Z,4.30
2022-11-29T09:32:26.131Z,3.90
2022-11-29T09:34:53.478Z,4.68
2022-11-29T09:37:20.785Z,4.22
2022-11-29T09:39:48.073Z,4.32
2022-11-29T09:42:32.741Z,3.80
2022-11-29T09:45:21.693Z,3.90
2022-11-29T09:48:19.105Z,4.15
2022-11-29T09:50:52.629Z,3.25
2022-11-29T09:53:47.991Z,4.10
2022-11-29T09:56:28.732Z,4.30
2022-11-29T09:59:17.152Z,4.07
2022-11-29T10:02:21.383Z,3.83
2022-11-29T10:05:12.115Z,3.40
2022-11-29T10:08:14.418Z,3.90
2022-11-29T10:10:46.467Z,3.95
2022-11-29T10:13:21.661Z,3.65
2022-11-29T10:15:54.119Z,3.70
2022-11-29T10:18:34.796Z,4.15
2022-11-29T10:21:35.429Z,3.90
2022-11-29T10:24:15.006Z,3.45
2022-11-29T10:26:43.761Z,3.60
2022-11-29T10:29:15.478Z,5.22
2022-11-29T10:34:31.572Z,4.80
2022-11-29T10:39:50.831Z,3.88
2022-11-29T10:42:39.735Z,3.33
2022-11-29T10:45:29.971Z,3.35
2022-11-29T10:48:04.017Z,3.67
2022-11-29T10:50:34.811Z,3.83
2022-11-29T10:53:10.738Z,3.53
2022-11-29T10:56:07.603Z,3.70
2022-11-29T10:58:35.988Z,3.00
2022-11-29T11:01:08.608Z,3.28
2022-11-29T11:03:41.463Z,3.22
2022-11-29T11:06:23.273Z,3.40
2022-11-29T11:08:54.512Z,3.78
2022-11-29T11:11:34.319Z,5.00
2022-11-29T11:14:07.124Z,4.20
2022-11-29T11:16:37.620Z,3.67
2022-11-29T11:19:28.367Z,3.25
2022-11-29T11:21:58.008Z,3.88
2022-11-29T11:24:31.892Z,3.92
2022-11-29T11:27:00.531Z,3.60
2022-11-29T11:29:44.220Z,3.80
2022-11-29T11:32:18.767Z,5.30
2022-11-29T11:35:00.285Z,3.17
2022-11-29T11:37:33.078Z,3.92
2022-11-29T11:40:26.581Z,3.47
2022-11-29T11:42:54.487Z,3.20
2022-11-29T11:45:32.759Z,3.33
2022-11-29T11:48:11.110Z,3.70
2022-11-29T11:50:53.147Z,4.13
2022-11-29T11:53:22.441Z,3.38
2022-11-29T11:56:00.386Z,4.05
2022-11-29T11:58:31.261Z,4.50
2022-11-29T12:01:13.558Z,4.63
2022-11-29T12:03:52.757Z,5.25
2022-11-29T12:06:36.368Z,4.93
2022-11-29T12:09:18.761Z,3.97
2022-11-29T12:11:49.141Z,4.65
2022-11-29T12:14:36.862Z,4.75
2022-11-29T12:17:18.536Z,4.68
2022-11-29T12:19:57.856Z,4.70
2022-11-29T12:22:31.768Z,4.28
2022-11-29T12:25:04.597Z,5.07
2022-11-29T12:27:32.181Z,4.72
2022-11-29T12:29:59.598Z,5.00
2022-11-29T12:32:47.711Z,5.10
2022-11-29T12:35:32.208Z,4.70
2022-11-29T12:38:30.711Z,3.47
2022-11-29T12:41:31.257Z,3.83
2022-11-29T12:44:55.191Z,3.50
2022-11-29T12:47:55.812Z,4.05
2022-11-29T12:50:30.333Z,4.28
2022-11-29T12:53:06.790Z,4.65
2022-11-29T12:55:55.116Z,4.22
2022-11-29T12:58:27.656Z,4.45
2022-11-29T13:01:19.436Z,4.18
2022-11-29T13:04:21.041Z,5.60
2022-11-29T13:07:24.709Z,4.97
2022-11-29T13:10:00.373Z,5.63
2022-11-29T13:12:39.270Z,5.80
2022-11-29T13:15:09.471Z,6.00
2022-11-29T13:17:55.689Z,6.15
2022-11-29T13:20:55.458Z,4.95
2022-11-29T13:23:46.138Z,4.80
2022-11-29T13:26:22.170Z,5.05
2022-11-29T13:28:50.501Z,5.05
2022-11-29T13:31:23.872Z,4.70
2022-11-29T13:34:01.273Z,5.38
2022-11-29T13:36:56.660Z,5.10
2022-11-29T13:39:45.805Z,5.80
2022-11-29T13:42:29.596Z,5.15
2022-11-29T13:45:18.918Z,5.25
2022-11-29T13:47:59.129Z,5.70
2022-11-29T13:50:35.839Z,5.50
2022-11-29T13:53:24.385Z,6.20
2022-11-29T13:56:00.152Z,6.38
2022-11-29T13:58:37.239Z,6.25
2022-11-29T14:01:13.717Z,5.88
2022-11-29T14:04:15.151Z,5.85
2022-11-29T14:06:42.655Z,5.25
2022-11-29T14:09:24.955Z,5.53
2022-11-29T14:12:37.224Z,5.85
2022-11-29T14:15:14.702Z,6.82
2022-11-29T14:17:52.978Z,6.00
2022-11-29T14:20:23.193Z,5.20
2022-11-29T14:23:05.777Z,6.28
2022-11-29T14:25:53.449Z,5.68
2022-11-29T14:28:23.745Z,5.32
2022-11-29T14:30:53.737Z,5.95
2022-11-29T14:33:32.910Z,6.80
2022-11-29T14:36:20.107Z,6.32
2022-11-29T14:38:47.547Z,6.13
2022-11-29T14:41:28.818Z,5.90
2022-11-29T14:44:28.240Z,6.10
2022-11-29T14:47:06.732Z,6.20
2022-11-29T14:49:44.846Z,6.82
2022-11-29T14:52:14.912Z,5.00
2022-11-29T14:55:17.176Z,5.47
2022-11-29T14:57:47.363Z,4.47
2022-11-29T15:00:21.832Z,5.57
2022-11-29T15:03:01.513Z,4.72
2022-11-29T15:05:41.656Z,4.78
2022-11-29T15:08:17.055Z,4.93
2022-11-29T15:10:53.086Z,5.38
2022-11-29T15:13:35.294Z,4.88
2022-11-29T15:16:34.968Z,5.30
2022-11-29T15:19:30.981Z,4.90
2022-11-29T15:22:24.422Z,4.75
2022-11-29T15:25:10.518Z,4.70
2022-11-29T15:27:49.031Z,6.05
2022-11-29T15:30:35.478Z,5.00
2022-11-29T15:33:08.803Z,5.40
2022-11-29T15:35:37.152Z,5.60
2022-11-29T15:38:04.716Z,4.93
2022-11-29T15:40:35.957Z,5.75
2022-11-29T15:43:26.468Z,5.38
2022-11-29T15:45:55.674Z,5.07
2022-11-29T15:48:27.189Z,4.43
2022-11-29T15:51:05.622Z,5.18
2022-11-29T15:54:11.797Z,5.10
2022-11-29T15:56:48.925Z,5.85
2022-11-29T15:59:19.244Z,5.55
2022-11-29T16:01:49.757Z,5.93
2022-11-29T16:04:21.615Z,5.18
2022-11-29T16:06:50.238Z,5.50
2022-11-29T16:09:29.431Z,5.30
2022-11-29T16:11:57.558Z,5.70
2022-11-29T16:14:28.270Z,5.68
2022-11-29T16:16:59.908Z,5.70
2022-11-29T16:19:37.060Z,5.88
2022-11-29T16:22:28.648Z,6.47
2022-11-29T16:25:16.738Z,6.18
2022-11-29T16:27:44.280Z,6.70
2022-11-29T16:30:26.749Z,6.15
2022-11-29T16:33:01.868Z,6.32
2022-11-29T16:35:36.592Z,6.18
2022-11-29T16:38:04.842Z,6.32
2022-11-29T16:40:34.758Z,7.07
2022-11-29T16:43:27.956Z,6.38
2022-11-29T16:46:20.173Z,6.43
2022-11-29T16:48:49.177Z,6.93
2022-11-29T16:51:27.261Z,7.20
2022-11-29T16:53:55.984Z,7.43
2022-11-29T16:56:25.843Z,7.00
2022-11-29T16:59:24.844Z,8.00
2022-11-29T17:01:44.461Z,8.07
2022-11-29T17:04:11.994Z,7.55
2022-11-29T17:06:52.067Z,8.23
2022-11-29T17:09:29.793Z,8.20
2022-11-29T17:12:00.044Z,8.57
2022-11-29T17:14:28.984Z,9.18
2022-11-29T17:16:56.645Z,8.73
2022-11-29T17:19:24.754Z,8.32
2022-11-29T17:21:53.070Z,7.78
2022-11-29T17:24:22.293Z,7.78
2022-11-29T17:26:50.201Z,9.85
2022-11-29T17:29:18.437Z,9.07
2022-11-29T17:31:46.982Z,8.25
2022-11-29T17:34:14.440Z,8.30
2022-11-29T17:36:42.237Z,8.35
2022-11-29T17:39:09.807Z,8.38
2022-11-29T17:41:37.392Z,8.85
2022-11-29T17:44:05.124Z,8.27
2022-11-29T17:46:34.793Z,8.38
2022-11-29T17:49:05.447Z,8.63
2022-11-29T17:54:24.756Z,8.65
2022-11-29T17:56:52.162Z,8.30
2022-11-29T17:59:19.682Z,9.45
2022-11-29T18:01:47.407Z,8.65
2022-11-29T18:04:15.106Z,8.68
2022-11-29T18:06:50.009Z,8.85
2022-11-29T18:09:18.874Z,8.60
2022-11-29T18:11:49.984Z,9.25
2022-11-29T18:14:24.040Z,9.48
2022-11-29T18:16:57.788Z,8.63
2022-11-29T18:19:25.700Z,8.27
2022-11-29T18:21:53.180Z,8.73
2022-11-29T18:24:20.684Z,8.60
2022-11-29T18:26:50.619Z,8.30
2022-11-29T18:29:18.077Z,8.23
2022-11-29T18:31:46.268Z,8.20
2022-11-29T18:34:19.392Z,8.93
2022-11-29T18:36:48.738Z,8.43
2022-11-29T18:39:18.630Z,8.15
2022-11-29T18:41:48.593Z,8.52
2022-11-29T18:44:18.514Z,8.05
2022-11-29T18:46:47.470Z,8.23
2022-11-29T18:49:16.709Z,8.10
2022-11-29T18:51:45.681Z,8.35
2022-11-29T18:54:18.360Z,8.25
2022-11-29T18:56:46.246Z,8.23
2022-11-29T18:59:17.902Z,7.72
2022-11-29T19:01:48.059Z,8.27
2022-11-29T19:04:20.786Z,7.97
2022-11-29T19:06:48.717Z,8.52
2022-11-29T19:09:21.092Z,7.93
2022-11-29T19:11:50.011Z,8.77
2022-11-29T19:14:18.462Z,8.35
2022-11-29T19:16:47.891Z,8.90
2022-11-29T19:19:15.271Z,8.45
2022-11-29T19:21:42.697Z,9.48
2022-11-29T19:24:14.957Z,8.93
2022-11-29T19:26:44.992Z,8.98
2022-11-29T19:29:14.063Z,9.32
2022-11-29T19:31:42.617Z,9.18
2022-11-29T19:34:10.356Z,9.82
2022-11-29T19:36:43.285Z,9.93
2022-11-29T19:39:16.333Z,9.45
2022-11-29T19:41:45.734Z,9.65
2022-11-29T19:44:13.638Z,9.02
2022-11-29T19:46:44.099Z,9.27
2022-11-29T19:49:12.198Z,8.95
2022-11-29T19:51:39.612Z,9.20
2022-11-29T19:54:09.277Z,8.65
2022-11-29T19:56:36.912Z,8.57
2022-11-29T19:59:05.729Z,8.13
2022-11-29T20:01:40.104Z,8.55
2022-11-29T20:04:09.183Z,9.05
2022-11-29T20:06:36.736Z,8.68
2022-11-29T20:09:04.725Z,8.85
2022-11-29T20:11:32.212Z,7.90
2022-11-29T20:14:04.301Z,7.70
2022-11-29T20:16:32.579Z,8.30
2022-11-29T20:19:01.961Z,8.30
2022-11-29T20:21:32.656Z,8.52
2022-11-29T20:24:06.147Z,8.35
2022-11-29T20:26:36.543Z,7.68
2022-11-29T20:29:06.387Z,8.43
2022-11-29T20:31:35.429Z,8.15
2022-11-29T20:34:03.995Z,8.68
2022-11-29T20:36:56.298Z,8.25
2022-11-29T20:39:28.702Z,7.97
2022-11-29T20:42:33.532Z,7.97
2022-11-29T20:45:03.063Z,7.65
2022-11-29T20:47:41.320Z,8.85
2022-11-29T20:50:13.655Z,7.88
2022-11-29T20:52:56.260Z,8.35
2022-11-29T20:55:23.769Z,8.52
2022-11-29T20:57:51.345Z,8.98
2022-11-29T21:00:21.465Z,8.80
2022-11-29T21:02:49.033Z,7.53
2022-11-29T21:05:16.996Z,8.73
2022-11-29T21:07:46.048Z,8.48
2022-11-29T21:10:15.580Z,8.45
2022-11-29T21:12:45.793Z,8.30
2022-11-29T21:15:14.388Z,8.73
2022-11-29T21:17:43.303Z,9.02
2022-11-29T21:20:19.453Z,8.68
2022-11-29T21:23:16.901Z,9.05
2022-11-29T21:25:59.732Z,7.88
2022-11-29T21:28:37.621Z,8.00
2022-11-29T21:31:05.419Z,8.07
2022-11-29T21:33:33.146Z,8.60
2022-11-29T21:36:01.829Z,7.97
2022-11-29T21:38:29.589Z,8.80
2022-11-29T21:40:56.970Z,9.50
2022-11-29T21:43:43.597Z,10.00
2022-11-29T21:46:12.270Z,10.00
2022-11-29T21:48:42.334Z,9.60
2022-11-29T21:51:11.426Z,10.10
2022-11-29T21:53:40.416Z,9.75
2022-11-29T21:56:10.444Z,8.98
2022-11-29T21:58:39.276Z,9.37
2022-11-29T22:01:19.270Z,9.60
2022-11-29T22:03:47.222Z,8.32
2022-11-29T22:06:20.713Z,9.10
2022-11-29T22:08:48.812Z,9.02
2022-11-29T22:11:31.095Z,8.68
2022-11-29T22:14:19.016Z,8.48
2022-11-29T22:16:57.729Z,8.45
2022-11-29T22:19:29.407Z,8.63
2022-11-29T22:21:59.470Z,8.18
2022-11-29T22:24:29.275Z,8.30
2022-11-29T22:26:57.014Z,8.32
2022-11-29T22:29:24.977Z,7.32
2022-11-29T22:31:54.322Z,9.45
2022-11-29T22:34:23.014Z,8.75
2022-11-29T22:36:50.444Z,8.00
2022-11-29T22:39:17.860Z,7.90
2022-11-29T22:41:52.321Z,8.27
2022-11-29T22:44:21.711Z,8.70
2022-11-29T22:46:49.255Z,8.80
2022-11-29T22:49:16.745Z,8.00
2022-11-29T22:51:44.227Z,7.55
2022-11-29T22:54:15.426Z,7.38
2022-11-29T22:56:44.099Z,7.90
2022-11-29T22:59:11.791Z,7.82
2022-11-29T23:01:40.977Z,7.15
2022-11-29T23:04:09.748Z,7.68
2022-11-29T23:06:39.415Z,7.63
2022-11-29T23:09:24.938Z,8.10
2022-11-29T23:11:54.485Z,7.88
2022-11-29T23:14:22.843Z,7.78
2022-11-29T23:16:50.593Z,7.35
2022-11-29T23:19:18.036Z,7.15
2022-11-29T23:21:46.372Z,7.80
2022-11-29T23:24:15.304Z,7.35
2022-11-29T23:26:46.621Z,6.95
2022-11-29T23:29:17.164Z,6.75
2022-11-29T23:31:45.140Z,6.90
2022-11-29T23:34:12.879Z,6.00
2022-11-29T23:36:40.228Z,7.07
2022-11-29T23:39:07.925Z,7.25
2022-11-29T23:41:36.574Z,7.45
2022-11-29T23:44:08.758Z,6.85
2022-11-29T23:46:36.314Z,6.68
2022-11-29T23:49:03.917Z,6.35
2022-11-29T23:51:31.340Z,6.78
2022-11-29T23:53:58.766Z,6.70
2022-11-29T23:56:26.262Z,6.68
2022-11-29T23:58:53.648Z,5.97
